Time;durP1;ratioP1;P1;durP2;ratioP2;P2;SDS_P1;SDS_P2;PMS_P1;PMS_P2;Temp;Humidity;BMP_temperature;BMP_pressure;BME280_temperature;BME280_humidity;BME280_pressure;Samples;Min_cycle;Max_cycle;Signal;HPM_P1;HPM_P2
2021/12/27 00:01:12;;;;;;;0.10;0.10;;;;;;;5.58;67.69;100307.16;5048745;28;20033;-85
2021/12/27 00:03:39;;;;;;;0.10;0.10;;;;;;;5.53;68.16;100312.44;5048987;28;20117;-87
2021/12/27 00:06:09;;;;;;;0.20;0.20;;;;;;;5.58;67.92;100304.53;5050285;28;20083;-86
2021/12/27 00:08:40;;;;;;;0.10;0.10;;;;;;;5.62;67.72;100300.97;5049063;28;20025;-87
2021/12/27 00:11:07;;;;;;;0.17;0.17;;;;;;;5.64;67.92;100305.34;5048123;28;20029;-86
2021/12/27 00:13:33;;;;;;;0.10;0.10;;;;;;;5.65;67.93;100298.34;5050279;28;20021;-87
2021/12/27 00:16:00;;;;;;;4.55;1.98;;;;;;;5.68;67.78;100300.94;5052928;28;20040;-89
2021/12/27 00:18:27;;;;;;;2.65;1.38;;;;;;;5.67;67.88;100301.84;5051472;28;20029;-89
2021/12/27 00:20:53;;;;;;;0.30;0.30;;;;;;;5.71;67.54;100294.75;5050454;28;20032;-89
2021/12/27 00:23:19;;;;;;;0.10;0.10;;;;;;;5.72;67.81;100294.78;5049982;28;20068;-88
2021/12/27 00:25:45;;;;;;;0.55;0.55;;;;;;;5.72;67.85;100286.88;5053890;28;20033;-88
2021/12/27 00:28:12;;;;;;;0.10;0.10;;;;;;;5.73;68.04;100282.50;5056088;28;20037;-86
2021/12/27 00:30:40;;;;;;;0.15;0.15;;;;;;;5.71;68.20;100279.88;5054062;28;20106;-86
2021/12/27 00:33:08;;;;;;;0.10;0.10;;;;;;;5.74;68.04;100274.59;5052288;28;20392;-88
2021/12/27 00:35:36;;;;;;;1.13;1.08;;;;;;;5.75;68.07;100268.44;5049172;28;20040;-82
2021/12/27 00:38:03;;;;;;;0.20;0.20;;;;;;;5.78;67.82;100265.81;5054442;28;20036;-86
2021/12/27 00:40:30;;;;;;;0.10;0.10;;;;;;;5.80;67.59;100263.16;5053966;28;20033;-89
2021/12/27 00:42:56;;;;;;;0.38;0.38;;;;;;;5.81;67.84;100268.38;5050463;28;20484;-87
2021/12/27 00:45:22;;;;;;;0.20;0.20;;;;;;;5.80;67.91;100271.91;5052670;28;20395;-82
2021/12/27 00:47:49;;;;;;;0.50;0.50;;;;;;;5.80;67.84;100264.00;5052656;28;20053;-88
2021/12/27 00:50:15;;;;;;;0.10;0.10;;;;;;;5.79;68.01;100257.00;5051462;28;20096;-88
2021/12/27 00:52:42;;;;;;;0.17;0.17;;;;;;;5.80;67.88;100258.75;5053835;28;20048;-86
2021/12/27 00:55:11;;;;;;;0.20;0.20;;;;;;;5.83;68.06;100252.59;5050910;28;20033;-88
2021/12/27 00:57:38;;;;;;;0.10;0.10;;;;;;;5.82;67.98;100241.22;5048667;28;20060;-87
2021/12/27 01:00:08;;;;;;;0.10;0.10;;;;;;;5.82;68.11;100241.22;5053754;28;20086;-85
2021/12/27 01:02:35;;;;;;;0.20;0.20;;;;;;;5.86;67.96;100235.91;5047228;28;20120;-81
2021/12/27 01:05:01;;;;;;;0.20;0.20;;;;;;;5.87;67.83;100238.56;5049058;28;20125;-87
2021/12/27 01:07:27;;;;;;;1.13;1.13;;;;;;;5.83;67.91;100232.44;5050288;28;20021;-88
2021/12/27 01:10:05;;;;;;;0.10;0.10;;;;;;;5.83;67.87;100227.19;5050884;28;20041;-87
2021/12/27 01:12:46;;;;;;;0.10;0.10;;;;;;;5.83;67.89;100227.19;5051122;28;20408;-85
2021/12/27 01:18:12;;;;;;;0.15;0.15;;;;;;;5.83;68.15;100227.19;5054215;28;20509;-87
2021/12/27 01:20:38;;;;;;;0.20;0.20;;;;;;;5.86;68.25;100231.53;5045237;28;20036;-86
2021/12/27 01:23:05;;;;;;;0.10;0.10;;;;;;;5.87;68.03;100227.16;5040715;28;20030;-79
2021/12/27 01:25:33;;;;;;;0.20;0.20;;;;;;;5.90;68.04;100227.13;5037273;28;20048;-87
2021/12/27 01:27:59;;;;;;;0.10;0.10;;;;;;;5.91;68.00;100223.63;5038175;28;20064;-85
2021/12/27 01:30:25;;;;;;;0.10;0.10;;;;;;;5.93;68.18;100222.72;5033478;28;20094;-88
2021/12/27 01:32:56;;;;;;;0.20;0.20;;;;;;;5.94;68.38;100213.94;5039640;28;20030;-89
2021/12/27 01:35:24;;;;;;;0.43;0.43;;;;;;;5.94;68.60;100220.94;5040825;28;20045;-83
2021/12/27 01:37:52;;;;;;;0.52;0.52;;;;;;;5.98;68.36;100214.75;5034796;28;20040;-87
2021/12/27 01:40:23;;;;;;;0.82;0.82;;;;;;;6.01;68.66;100216.50;5017259;28;20039;-88
2021/12/27 01:43:14;;;;;;;0.10;0.10;;;;;;;6.08;68.57;100215.56;5043132;28;20034;-87
2021/12/27 01:45:45;;;;;;;0.10;0.10;;;;;;;6.04;68.58;100209.44;5035107;28;20103;-87
2021/12/27 01:48:13;;;;;;;1.38;1.27;;;;;;;6.06;68.73;100225.25;5034403;28;20029;-87
2021/12/27 01:50:43;;;;;;;0.10;0.10;;;;;;;6.05;68.64;100213.84;5017368;28;20048;-79
2021/12/27 01:53:10;;;;;;;0.17;0.17;;;;;;;6.06;68.87;100219.97;5037343;28;20085;-88
2021/12/27 01:55:38;;;;;;;0.20;0.20;;;;;;;6.07;68.87;100212.06;5038597;28;20029;-86
2021/12/27 01:58:05;;;;;;;0.20;0.20;;;;;;;6.06;68.96;100212.09;5038945;28;20026;-87
2021/12/27 02:00:33;;;;;;;0.10;0.10;;;;;;;6.13;68.93;100219.88;5033994;28;20469;-87
2021/12/27 02:02:59;;;;;;;0.10;0.10;;;;;;;6.11;68.61;100213.75;5036290;28;20033;-83
2021/12/27 02:05:25;;;;;;;0.45;0.45;;;;;;;6.10;68.97;100219.91;5034510;28;20064;-82
2021/12/27 02:07:52;;;;;;;0.10;0.10;;;;;;;6.14;68.76;100216.38;5038152;28;20177;-86
2021/12/27 02:10:18;;;;;;;0.10;0.10;;;;;;;6.15;68.70;100210.19;5037019;28;20025;-86
2021/12/27 02:12:44;;;;;;;0.10;0.10;;;;;;;6.18;68.72;100208.44;5037345;28;20033;-86
2021/12/27 02:15:12;;;;;;;0.20;0.20;;;;;;;6.18;68.86;100204.06;5038526;28;20152;-87
2021/12/27 02:17:44;;;;;;;0.10;0.10;;;;;;;6.23;68.76;100194.34;5035811;28;20069;-78
2021/12/27 02:20:21;;;;;;;0.43;0.43;;;;;;;6.27;68.79;100205.69;5016333;28;20041;-82
2021/12/27 02:22:59;;;;;;;0.10;0.10;;;;;;;6.30;68.51;100197.75;5036967;28;20034;-84
2021/12/27 02:25:27;;;;;;;0.70;0.70;;;;;;;6.23;68.94;100203.97;5036679;28;20519;-87
2021/12/27 02:27:54;;;;;;;0.20;0.20;;;;;;;6.24;68.87;100196.09;5013805;28;20026;-85
2021/12/27 02:30:22;;;;;;;0.17;0.17;;;;;;;6.27;68.87;100195.19;5022420;28;20038;-86
2021/12/27 02:32:54;;;;;;;0.10;0.10;;;;;;;6.30;68.62;100195.13;5021140;28;20028;-84
2021/12/27 02:35:25;;;;;;;;;;;;;;;6.42;68.60;100194.97;5003316;28;20393;-78
2021/12/27 02:37:54;;;;;;;0.13;0.13;;;;;;;6.30;69.03;100195.13;5021904;28;19924;-86
2021/12/27 02:40:25;;;;;;;0.10;0.10;;;;;;;6.28;69.06;100196.88;5021586;28;20104;-87
2021/12/27 02:45:33;;;;;;;2.47;2.20;;;;;;;6.35;68.73;100193.31;4831226;27;6717596;-85
2021/12/27 02:48:02;;;;;;;0.10;0.10;;;;;;;6.37;68.80;100191.53;5073706;28;20028;-88
2021/12/27 02:50:31;;;;;;;0.13;0.13;;;;;;;6.37;68.76;100188.00;5064756;28;20048;-87
2021/12/27 02:52:59;;;;;;;0.10;0.10;;;;;;;6.39;68.80;100187.13;5062845;28;20055;-79
2021/12/27 02:55:33;;;;;;;0.10;0.10;;;;;;;6.44;68.71;100187.03;5053328;28;20104;-82
2021/12/27 02:57:59;;;;;;;1.05;1.05;;;;;;;6.40;68.86;100186.22;5036788;28;20041;-79
2021/12/27 03:00:32;;;;;;;0.10;0.10;;;;;;;6.44;68.64;100187.94;5056848;28;20044;-81
2021/12/27 03:02:58;;;;;;;0.10;0.10;;;;;;;6.44;68.65;100182.66;5053348;28;20030;-80
2021/12/27 03:05:27;;;;;;;0.20;0.20;;;;;;;6.45;68.86;100187.00;5053927;28;20033;-87
2021/12/27 03:07:56;;;;;;;0.00;0.00;;;;;;;6.45;68.81;100184.38;5055125;28;20033;-78
2021/12/27 03:10:25;;;;;;;0.10;0.10;;;;;;;6.48;68.85;100181.72;5051538;28;20037;-80
2021/12/27 03:12:53;;;;;;;0.10;0.10;;;;;;;6.50;68.56;100175.56;5054623;28;20450;-82
2021/12/27 03:15:22;;;;;;;0.10;0.10;;;;;;;6.51;68.75;100174.69;5042861;28;20044;-82
2021/12/27 03:17:50;;;;;;;0.50;0.50;;;;;;;6.50;68.82;100172.94;5056926;28;20028;-81
2021/12/27 03:20:19;;;;;;;0.40;0.40;;;;;;;6.47;68.80;100166.81;5057084;28;20029;-81
2021/12/27 03:22:45;;;;;;;1.05;1.05;;;;;;;6.52;68.50;100179.03;5054169;28;20033;-87
2021/12/27 03:25:17;;;;;;;0.10;0.10;;;;;;;6.57;68.61;100170.19;5054252;28;20094;-82
2021/12/27 03:27:44;;;;;;;0.10;0.10;;;;;;;6.57;68.76;100166.72;5054866;28;20052;-86
2021/12/27 03:30:13;;;;;;;0.10;0.10;;;;;;;6.59;68.89;100167.53;5055491;28;20599;-82
2021/12/27 03:32:40;;;;;;;0.20;0.20;;;;;;;6.57;68.67;100162.31;5053804;28;20033;-88
2021/12/27 03:35:13;;;;;;;0.25;0.25;;;;;;;6.62;68.29;100156.97;5052687;28;20029;-88
2021/12/27 03:37:43;;;;;;;0.20;0.20;;;;;;;6.61;68.63;100157.88;5053175;28;20033;-85
2021/12/27 03:40:11;;;;;;;0.10;0.10;;;;;;;6.62;68.65;100149.06;5038119;28;20112;-83
2021/12/27 03:42:38;;;;;;;0.50;0.50;;;;;;;6.63;68.90;100146.41;5054778;28;20395;-87
2021/12/27 03:45:07;;;;;;;0.32;0.32;;;;;;;6.67;68.78;100146.34;5039687;28;20075;-86
2021/12/27 03:47:34;;;;;;;0.10;0.10;;;;;;;6.64;68.79;100139.38;5055643;28;20041;-86
2021/12/27 03:50:19;;;;;;;0.00;0.00;;;;;;;6.65;68.92;100133.22;5057479;28;20025;-88
2021/12/27 03:52:47;;;;;;;1.52;0.98;;;;;;;6.67;68.77;100131.44;5060482;28;20039;-87
2021/12/27 03:55:21;;;;;;;0.10;0.10;;;;;;;6.69;68.71;100129.69;5032736;28;20547;-89
2021/12/27 03:57:54;;;;;;;0.20;0.20;;;;;;;6.71;68.56;100138.41;5042447;28;20135;-86
2021/12/27 04:03:09;;;;;;;0.10;0.10;;;;;;;6.72;68.54;100139.28;5073973;28;21003;-83
2021/12/27 04:05:35;;;;;;;0.10;0.10;;;;;;;6.76;68.66;100143.59;5066175;28;20029;-87
2021/12/27 04:08:09;;;;;;;0.10;0.10;;;;;;;6.76;68.69;100133.91;5062944;28;20037;-88
2021/12/27 04:10:37;;;;;;;0.20;0.20;;;;;;;6.78;68.73;100129.50;5060781;28;20591;-86
2021/12/27 04:13:04;;;;;;;0.10;0.10;;;;;;;6.75;69.05;100121.69;5063232;28;20025;-83
2021/12/27 04:15:32;;;;;;;0.10;0.10;;;;;;;6.74;69.02;100122.56;5061831;28;20048;-87
2021/12/27 04:17:58;;;;;;;0.10;0.10;;;;;;;6.76;69.18;100117.28;5061808;28;20498;-88
2021/12/27 04:20:25;;;;;;;0.10;0.10;;;;;;;6.76;69.09;100119.91;5063951;28;20032;-87
2021/12/27 04:22:57;;;;;;;0.13;0.13;;;;;;;6.80;69.18;100124.22;5062271;28;20041;-88
2021/12/27 04:25:23;;;;;;;0.60;0.60;;;;;;;6.78;69.14;100108.44;5048775;28;20025;-88
2021/12/27 04:27:50;;;;;;;0.10;0.10;;;;;;;6.79;69.22;100114.56;5067666;28;20036;-86
2021/12/27 04:30:20;;;;;;;0.15;0.15;;;;;;;6.82;69.35;100111.00;5066778;28;20047;-89
2021/12/27 04:32:50;;;;;;;0.20;0.20;;;;;;;6.85;69.19;100114.47;5066508;28;20048;-89
2021/12/27 04:35:19;;;;;;;0.25;0.25;;;;;;;6.90;68.95;100114.41;5064737;28;20280;-85
2021/12/27 04:37:46;;;;;;;0.10;0.10;;;;;;;6.89;69.38;100110.03;5067538;28;20124;-88
2021/12/27 04:40:16;;;;;;;1.13;1.13;;;;;;;6.91;69.45;100110.88;5066119;28;20036;-83
2021/12/27 04:42:45;;;;;;;0.20;0.20;;;;;;;6.93;69.23;100096.78;5066002;28;20044;-82
2021/12/27 04:45:14;;;;;;;0.47;0.47;;;;;;;6.95;69.06;100091.50;5064580;28;20032;-89
2021/12/27 04:47:41;;;;;;;0.10;0.10;;;;;;;7.00;68.78;100086.16;5067308;28;20028;-84
2021/12/27 04:50:08;;;;;;;0.15;0.15;;;;;;;7.00;69.28;100083.53;5061552;28;20112;-83
2021/12/27 04:55:23;;;;;;;0.52;0.52;;;;;;;7.01;68.89;100085.25;5067053;28;20126;-86
2021/12/27 04:57:49;;;;;;;0.10;0.10;;;;;;;6.98;69.03;100078.28;5061998;28;20033;-80
2021/12/27 05:00:16;;;;;;;0.10;0.10;;;;;;;6.99;68.86;100090.56;5064898;28;20064;-83
2021/12/27 05:02:43;;;;;;;0.10;0.10;;;;;;;6.96;69.33;100096.72;5065837;28;20033;-88
2021/12/27 05:05:10;;;;;;;0.95;0.95;;;;;;;6.97;68.68;100108.16;5060403;28;20479;-84
2021/12/27 05:07:36;;;;;;;0.10;0.10;;;;;;;6.96;69.25;100101.13;5064813;28;20024;-86
2021/12/27 05:10:04;;;;;;;0.20;0.20;;;;;;;6.97;69.31;100097.63;5062184;28;20112;-86
2021/12/27 05:12:30;;;;;;;0.10;0.10;;;;;;;6.95;69.29;100088.84;5052876;28;20124;-89
2021/12/27 05:14:56;;;;;;;0.40;0.40;;;;;;;6.94;69.35;100071.31;5040802;28;20029;-83
2021/12/27 05:17:23;;;;;;;0.10;0.10;;;;;;;6.98;69.44;100067.75;5041859;28;20092;-82
2021/12/27 05:19:49;;;;;;;0.15;0.15;;;;;;;7.01;69.03;100059.78;5046972;28;20033;-90
2021/12/27 05:22:15;;;;;;;0.40;0.40;;;;;;;7.04;69.03;100069.38;5043385;28;20389;-83
2021/12/27 05:24:42;;;;;;;0.10;0.10;;;;;;;7.04;69.35;100070.28;5045503;28;20472;-80
2021/12/27 05:27:09;;;;;;;0.20;0.20;;;;;;;7.10;69.06;100074.56;5046356;28;20075;-81
2021/12/27 05:29:36;;;;;;;0.10;0.10;;;;;;;7.04;69.43;100072.03;5045413;28;20424;-78
2021/12/27 05:32:04;;;;;;;0.10;0.10;;;;;;;7.06;69.43;100065.84;5043529;28;20052;-81
2021/12/27 05:34:31;;;;;;;0.10;0.10;;;;;;;7.07;69.40;100067.56;5044916;28;20091;-87
2021/12/27 05:36:58;;;;;;;0.10;0.10;;;;;;;7.09;69.47;100057.88;5047393;28;20094;-77
2021/12/27 05:39:25;;;;;;;0.10;0.10;;;;;;;7.07;69.77;100057.03;5048553;28;20112;-85
2021/12/27 05:41:51;;;;;;;0.10;0.10;;;;;;;7.10;69.52;100057.00;5047394;28;20082;-87
2021/12/27 05:44:18;;;;;;;0.10;0.10;;;;;;;7.11;69.69;100058.72;5046380;28;20029;-82
2021/12/27 05:46:45;;;;;;;0.30;0.30;;;;;;;7.10;69.88;100046.47;5050052;28;20064;-87
2021/12/27 05:49:11;;;;;;;0.35;0.35;;;;;;;7.12;69.61;100052.53;5047415;28;20029;-85
2021/12/27 05:51:37;;;;;;;0.30;0.30;;;;;;;7.16;69.38;100055.16;5048720;28;20067;-81
2021/12/27 05:54:04;;;;;;;0.52;0.52;;;;;;;7.17;69.62;100059.53;5044766;28;20381;-85
2021/12/27 05:56:31;;;;;;;0.10;0.10;;;;;;;7.22;69.65;100062.94;5045300;28;20030;-86
2021/12/27 05:58:57;;;;;;;0.10;0.10;;;;;;;7.24;69.65;100059.38;5047640;28;20033;-81
2021/12/27 06:01:23;;;;;;;0.20;0.20;;;;;;;7.25;69.63;100055.84;5049671;28;20108;-87
2021/12/27 06:03:49;;;;;;;0.10;0.10;;;;;;;7.30;69.96;100050.47;5044730;28;20041;-85
2021/12/27 06:06:16;;;;;;;0.10;0.10;;;;;;;7.31;69.56;100057.47;5045977;28;20041;-85
2021/12/27 06:08:42;;;;;;;0.10;0.10;;;;;;;7.34;69.30;100051.28;5048493;28;20048;-80
2021/12/27 06:11:09;;;;;;;0.40;0.40;;;;;;;7.35;69.43;100060.91;5044718;28;20468;-90
2021/12/27 06:13:35;;;;;;;0.50;0.50;;;;;;;7.40;69.59;100056.44;5047749;28;20060;-83
2021/12/27 06:16:03;;;;;;;0.10;0.10;;;;;;;7.36;69.51;100046.84;5046362;28;20029;-87
2021/12/27 06:18:29;;;;;;;0.10;0.10;;;;;;;7.38;69.53;100056.47;5045505;28;20531;-86
2021/12/27 06:20:55;;;;;;;0.10;0.10;;;;;;;7.39;70.13;100052.94;5048112;28;20120;-78
2021/12/27 06:23:21;;;;;;;0.47;0.47;;;;;;;7.41;69.56;100048.50;5050455;28;20163;-89
2021/12/27 06:25:47;;;;;;;0.15;0.15;;;;;;;7.47;69.67;100049.28;5049468;28;20044;-87
2021/12/27 06:28:13;;;;;;;0.85;0.85;;;;;;;7.51;69.54;100049.16;5047091;28;20036;-87
2021/12/27 06:30:41;;;;;;;0.13;0.13;;;;;;;7.54;69.72;100042.97;5047800;28;20064;-88
2021/12/27 06:33:09;;;;;;;0.10;0.10;;;;;;;7.56;70.00;100054.34;5042037;28;20116;-86
2021/12/27 06:35:35;;;;;;;0.10;0.10;;;;;;;7.58;69.36;100049.94;5046579;28;20502;-88
2021/12/27 06:38:01;;;;;;;0.13;0.13;;;;;;;7.61;69.62;100045.47;5047746;28;20029;-89
2021/12/27 06:40:27;;;;;;;0.20;0.20;;;;;;;7.65;69.58;100048.91;5043644;28;20037;-89
2021/12/27 06:42:53;;;;;;;0.08;0.08;;;;;;;7.66;69.28;100052.41;5046709;28;20072;-89
2021/12/27 06:45:19;;;;;;;0.20;0.20;;;;;;;7.70;69.56;100052.31;5047985;28;20544;-78
2021/12/27 06:47:46;;;;;;;0.10;0.10;;;;;;;7.71;69.64;100047.91;5045950;28;20116;-87
2021/12/27 06:50:12;;;;;;;0.20;0.20;;;;;;;7.73;69.12;100054.88;5048331;28;20072;-90
2021/12/27 06:52:43;;;;;;;0.55;0.55;;;;;;;7.77;69.32;100056.53;5049470;28;20053;-86
2021/12/27 06:55:11;;;;;;;0.35;0.35;;;;;;;7.77;69.69;100059.19;5043616;28;20041;-87
2021/12/27 06:57:38;;;;;;;1.30;0.45;;;;;;;7.79;69.93;100051.25;5047119;28;20052;-89
2021/12/27 07:00:08;;;;;;;0.20;0.20;;;;;;;7.83;69.73;100052.91;5053744;28;20025;-84
2021/12/27 07:02:36;;;;;;;0.20;0.20;;;;;;;7.84;69.40;100053.78;5059576;28;20041;-79
2021/12/27 07:05:04;;;;;;;0.30;0.30;;;;;;;7.88;69.12;100061.59;5052551;28;20045;-86
2021/12/27 07:07:30;;;;;;;0.10;0.10;;;;;;;7.90;69.49;100058.91;5045211;28;20052;-89
2021/12/27 07:09:56;;;;;;;0.13;0.13;;;;;;;7.90;69.79;100056.28;5050188;28;20056;-86
2021/12/27 07:12:23;;;;;;;0.57;0.57;;;;;;;7.91;69.84;100051.00;5043933;28;20041;-87
2021/12/27 07:14:50;;;;;;;0.00;0.00;;;;;;;7.93;69.91;100048.31;5041577;28;20025;-89
2021/12/27 07:17:16;;;;;;;0.55;0.55;;;;;;;7.93;69.67;100049.16;5044245;28;20017;-88
2021/12/27 07:19:43;;;;;;;0.10;0.10;;;;;;;7.97;69.20;100039.41;5044094;28;20040;-90
2021/12/27 07:22:10;;;;;;;0.10;0.10;;;;;;;7.92;70.07;100039.53;5046420;28;20178;-88
2021/12/27 07:24:36;;;;;;;0.10;0.10;;;;;;;7.97;69.71;100035.94;5038220;28;20041;-89
2021/12/27 07:27:03;;;;;;;0.10;0.10;;;;;;;8.00;69.88;100035.84;5034270;28;20036;-87
2021/12/27 07:29:29;;;;;;;0.25;0.25;;;;;;;8.02;69.48;100037.53;5048982;28;20033;-89
2021/12/27 07:31:56;;;;;;;0.10;0.10;;;;;;;8.05;69.47;100041.88;5041205;28;20085;-89
2021/12/27 07:34:24;;;;;;;0.30;0.30;;;;;;;8.06;69.28;100040.97;5041680;28;20512;-87
2021/12/27 07:36:52;;;;;;;0.20;0.20;;;;;;;8.09;69.79;100025.94;5041243;28;20048;-89
2021/12/27 07:39:19;;;;;;;0.20;0.20;;;;;;;8.09;69.45;100031.22;5035078;28;20091;-88
2021/12/27 07:41:46;;;;;;;0.10;0.10;;;;;;;8.12;69.93;100035.56;5042949;28;20033;-87
2021/12/27 07:44:12;;;;;;;0.10;0.10;;;;;;;8.14;69.58;100039.06;5043316;28;20033;-86
2021/12/27 07:46:40;;;;;;;0.10;0.10;;;;;;;8.17;69.49;100040.75;5045273;28;20108;-87
2021/12/27 07:49:07;;;;;;;0.10;0.10;;;;;;;8.17;69.25;100041.59;5045996;28;20029;-88
2021/12/27 07:51:34;;;;;;;0.20;0.20;;;;;;;8.20;69.71;100032.75;5044140;28;20477;-87
2021/12/27 07:54:01;;;;;;;0.10;0.10;;;;;;;8.10;70.17;100038.25;5047232;28;20032;-88
2021/12/27 07:56:28;;;;;;;0.10;0.10;;;;;;;8.09;69.74;100051.50;5042802;28;20029;-87
2021/12/27 07:58:54;;;;;;;0.20;0.20;;;;;;;8.15;70.08;100038.16;5045203;28;20104;-90
2021/12/27 08:01:21;;;;;;;0.10;0.10;;;;;;;8.22;69.63;100038.88;5043894;28;20452;-84
2021/12/27 08:03:47;;;;;;;0.13;0.13;;;;;;;8.24;69.97;100031.78;5048980;28;20476;-89
2021/12/27 08:06:14;;;;;;;0.10;0.10;;;;;;;8.25;69.42;100026.47;5049474;28;20029;-87
2021/12/27 08:08:40;;;;;;;0.10;0.10;;;;;;;8.28;69.88;100028.16;5048546;28;20108;-89
2021/12/27 08:11:06;;;;;;;0.10;0.10;;;;;;;8.30;69.27;100036.94;5042940;28;20079;-89
2021/12/27 08:13:33;;;;;;;0.30;0.30;;;;;;;8.34;69.58;100033.31;5047132;28;20040;-88
2021/12/27 08:16:00;;;;;;;0.10;0.10;;;;;;;8.35;69.26;100032.41;5040023;28;20029;-81
2021/12/27 08:18:26;;;;;;;0.10;0.10;;;;;;;8.34;69.37;100030.66;5045030;28;20083;-82
2021/12/27 08:20:52;;;;;;;0.43;0.43;;;;;;;8.35;69.85;100029.75;5049609;28;20029;-79
2021/12/27 08:23:19;;;;;;;0.03;0.03;;;;;;;8.35;69.46;100026.25;5043310;28;20456;-78
2021/12/27 08:25:45;;;;;;;0.10;0.10;;;;;;;8.35;69.62;100034.16;5040886;28;20400;-87
2021/12/27 08:28:12;;;;;;;0.08;0.08;;;;;;;8.34;69.43;100033.31;5048585;28;20017;-85
2021/12/27 08:30:38;;;;;;;0.40;0.40;;;;;;;8.35;69.08;100035.03;5044768;28;20033;-85
2021/12/27 08:33:04;;;;;;;0.30;0.30;;;;;;;8.34;69.37;100035.09;5051835;28;20087;-86
2021/12/27 08:35:30;;;;;;;0.10;0.10;;;;;;;8.30;69.37;100021.09;5049400;28;20541;-84
2021/12/27 08:37:56;;;;;;;0.20;0.20;;;;;;;8.30;69.54;100010.53;5061656;28;20037;-79
2021/12/27 08:40:22;;;;;;;0.10;0.10;;;;;;;8.28;69.47;100017.63;5045306;28;20079;-83
2021/12/27 08:42:49;;;;;;;0.10;0.10;;;;;;;8.25;68.90;100020.34;5052296;28;20025;-84
2021/12/27 08:45:15;;;;;;;0.10;0.10;;;;;;;8.23;69.51;100015.06;5052771;28;20128;-83
2021/12/27 08:47:41;;;;;;;1.95;1.85;;;;;;;8.21;69.33;100011.63;5053195;28;20039;-86
2021/12/27 08:50:09;;;;;;;0.47;0.47;;;;;;;8.26;69.30;100016.78;5056757;28;20032;-83
2021/12/27 08:52:36;;;;;;;0.10;0.10;;;;;;;8.28;68.94;100012.34;5056586;28;20120;-86
2021/12/27 08:55:03;;;;;;;0.10;0.10;;;;;;;8.31;68.79;100009.63;5047942;28;20055;-86
2021/12/27 08:57:31;;;;;;;0.20;0.20;;;;;;;8.35;68.90;100008.66;5042963;28;20025;-86
2021/12/27 08:59:57;;;;;;;0.10;0.10;;;;;;;8.30;69.13;100004.38;5056063;28;20044;-86
2021/12/27 09:02:23;;;;;;;0.10;0.10;;;;;;;8.30;69.64;100002.63;5056357;28;20108;-86
2021/12/27 09:04:50;;;;;;;0.20;0.20;;;;;;;8.29;69.91;100000.88;5039081;28;20108;-86
2021/12/27 09:07:18;;;;;;;0.20;0.20;;;;;;;8.28;69.78;99993.00;5049646;28;20038;-86
2021/12/27 09:09:46;;;;;;;0.30;0.30;;;;;;;8.35;69.39;99986.66;5053799;28;20025;-85
2021/12/27 09:12:13;;;;;;;4.65;0.90;;;;;;;8.41;69.98;99981.22;5043996;28;20428;-85
2021/12/27 09:14:39;;;;;;;0.10;0.10;;;;;;;8.48;69.14;99971.41;5052394;28;20167;-84
2021/12/27 09:17:05;;;;;;;0.30;0.30;;;;;;;8.50;69.23;99980.16;5053075;28;20037;-85
2021/12/27 09:19:32;;;;;;;0.10;0.10;;;;;;;8.53;69.82;99988.00;5043826;28;20401;-87
2021/12/27 09:21:58;;;;;;;0.20;0.20;;;;;;;8.56;69.88;99986.16;5045775;28;20117;-84
2021/12/27 09:24:24;;;;;;;0.45;0.45;;;;;;;8.61;69.60;99988.69;5050505;28;20056;-86
2021/12/27 09:26:50;;;;;;;0.10;0.10;;;;;;;8.59;69.91;99995.78;5039220;28;20432;-87
2021/12/27 09:29:17;;;;;;;0.47;0.47;;;;;;;8.56;69.69;100001.13;5051540;28;20049;-86
2021/12/27 09:31:43;;;;;;;0.10;0.10;;;;;;;8.58;70.20;100012.50;5047847;28;20510;-85
2021/12/27 09:34:09;;;;;;;0.20;0.20;;;;;;;8.55;70.28;100020.53;5045638;28;20041;-84
2021/12/27 09:36:35;;;;;;;0.20;0.20;;;;;;;8.61;69.90;100032.69;5052068;28;20096;-86
2021/12/27 09:39:02;;;;;;;2.15;0.52;;;;;;;8.62;69.95;100031.78;5053126;28;20451;-84
2021/12/27 09:41:29;;;;;;;0.10;0.10;;;;;;;8.70;69.45;100025.41;5042102;28;20059;-82
2021/12/27 09:43:55;;;;;;;0.98;0.98;;;;;;;8.70;69.63;100014.84;5045931;28;20125;-85
2021/12/27 09:46:23;;;;;;;0.10;0.10;;;;;;;8.71;69.51;99994.56;5041667;28;20067;-83
2021/12/27 09:48:51;;;;;;;0.10;0.10;;;;;;;8.75;69.49;99993.63;5036530;28;20061;-79
2021/12/27 09:51:17;;;;;;;1.27;1.27;;;;;;;8.79;69.88;100002.31;5051280;28;20071;-85
2021/12/27 09:53:44;;;;;;;0.20;0.20;;;;;;;8.78;70.04;99990.03;5045173;28;20017;-83
2021/12/27 09:56:12;;;;;;;1.23;1.13;;;;;;;8.85;69.60;99994.25;5044731;28;20037;-84
2021/12/27 09:58:39;;;;;;;0.10;0.10;;;;;;;8.86;69.72;99985.38;5043833;28;20029;-81
2021/12/27 10:01:06;;;;;;;0.15;0.15;;;;;;;8.91;69.91;99988.78;5040264;28;20033;-81
2021/12/27 10:06:29;;;;;;;0.10;0.10;;;;;;;9.04;70.27;99961.09;5105864;27;20521;-83
2021/12/27 10:08:59;;;;;;;0.10;0.10;;;;;;;9.15;69.67;99966.09;5101143;28;20032;-85
2021/12/27 10:19:33;;;;;;;0.40;0.40;;;;;;;9.33;70.20;99940.03;5085947;28;20393;-85
2021/12/27 10:22:00;;;;;;;1.38;1.35;;;;;;;9.37;70.16;99939.91;5068188;28;20024;-84
2021/12/27 10:24:28;;;;;;;0.10;0.10;;;;;;;9.35;70.32;99949.66;5071247;28;20102;-80
2021/12/27 10:27:01;;;;;;;0.20;0.20;;;;;;;9.45;70.04;99954.69;5082878;28;20039;-85
2021/12/27 10:29:30;;;;;;;0.10;0.10;;;;;;;9.38;70.35;99943.41;5059624;28;20041;-79
2021/12/27 10:32:16;;;;;;;0.40;0.40;;;;;;;9.49;69.82;99951.03;5056095;28;20044;-84
2021/12/27 10:34:51;;;;;;;0.57;0.57;;;;;;;9.44;70.25;99947.66;5057925;28;20033;-85
2021/12/27 10:42:48;;;;;;;0.20;0.20;;;;;;;9.43;70.29;99951.22;5068820;27;20415;-82
2021/12/27 10:45:18;;;;;;;0.10;0.10;;;;;;;9.48;70.22;99951.94;5050633;28;20112;-85
2021/12/27 10:47:48;;;;;;;0.10;0.10;;;;;;;9.51;70.27;99947.44;5052051;28;20087;-84
2021/12/27 10:55:43;;;;;;;0.10;0.10;;;;;;;9.64;69.99;99941.78;5071565;27;20408;-85
2021/12/27 11:01:02;;;;;;;1.27;1.20;;;;;;;9.76;70.30;99938.75;5051169;28;20406;-83
2021/12/27 11:03:31;;;;;;;0.13;0.13;;;;;;;9.80;70.15;99942.16;5042538;28;20586;-86
2021/12/27 11:05:59;;;;;;;1.30;1.20;;;;;;;9.82;70.48;99942.97;5035658;28;20041;-85
2021/12/27 11:08:27;;;;;;;2.58;2.47;;;;;;;9.82;70.33;99942.97;5044347;28;20101;-86
2021/12/27 11:10:54;;;;;;;0.08;0.08;;;;;;;9.85;70.60;99932.31;5041540;28;20060;-84
2021/12/27 11:13:20;;;;;;;0.20;0.20;;;;;;;9.90;70.56;99925.09;5037285;28;20030;-84
2021/12/27 11:15:46;;;;;;;4.13;1.35;;;;;;;9.98;70.56;99925.72;5043054;28;20037;-83
2021/12/27 11:18:14;;;;;;;2.00;1.90;;;;;;;10.03;70.45;99915.84;5037578;28;20391;-82
2021/12/27 11:20:45;;;;;;;0.38;0.38;;;;;;;10.10;70.36;99910.34;5037241;28;20108;-86
2021/12/27 11:23:14;;;;;;;0.20;0.20;;;;;;;10.11;70.72;99906.78;5031442;28;20030;-83
2021/12/27 11:25:43;;;;;;;1.92;0.82;;;;;;;10.15;70.23;99900.47;5038693;28;20033;-84
2021/12/27 11:28:31;;;;;;;0.20;0.20;;;;;;;10.23;70.50;99895.78;5044018;28;20029;-87
2021/12/27 11:31:02;;;;;;;0.28;0.28;;;;;;;10.13;70.60;99897.00;5040847;28;20091;-85
2021/12/27 11:33:30;;;;;;;0.10;0.10;;;;;;;10.12;70.74;99890.84;5031340;28;20113;-85
2021/12/27 11:41:36;;;;;;;0.68;0.68;;;;;;;10.22;70.50;99883.47;5055840;27;2266206;-79
2021/12/27 11:52:31;;;;;;;0.50;0.50;;;;;;;10.22;70.38;99879.94;5073847;27;20410;-85
2021/12/27 11:55:01;;;;;;;0.10;0.10;;;;;;;10.24;70.27;99871.03;5052894;28;20026;-85
2021/12/27 12:03:20;;;;;;;0.10;0.10;;;;;;;10.18;70.42;99844.75;5074160;27;20459;-86
2021/12/27 12:05:49;;;;;;;0.15;0.15;;;;;;;10.16;70.27;99847.47;5031399;28;20083;-84
2021/12/27 12:08:40;;;;;;;0.32;0.32;;;;;;;10.18;70.33;99844.75;5027728;28;20046;-81
2021/12/27 12:11:10;;;;;;;0.10;0.10;;;;;;;10.17;70.07;99827.19;5027494;28;20049;-81
2021/12/27 12:16:18;;;;;;;0.10;0.10;;;;;;;10.24;69.83;99822.53;5035482;27;1464721;-79
2021/12/27 12:24:20;;;;;;;0.10;0.10;;;;;;;10.37;69.93;99845.03;5094964;27;20397;-79
2021/12/27 12:26:53;;;;;;;0.95;0.82;;;;;;;10.41;69.71;99840.50;5080339;28;20338;-84
2021/12/27 12:29:20;;;;;;;0.80;0.80;;;;;;;10.38;69.49;99835.28;5079290;28;20021;-78
2021/12/27 12:31:46;;;;;;;2.08;1.15;;;;;;;10.43;69.64;99838.63;5080692;28;20033;-81
2021/12/27 12:34:15;;;;;;;0.20;0.20;;;;;;;10.44;69.57;99830.66;5083226;28;20511;-80
2021/12/27 12:36:53;;;;;;;0.10;0.10;;;;;;;10.56;69.40;99834.63;5089559;28;20054;-83
2021/12/27 12:39:21;;;;;;;0.95;0.95;;;;;;;10.51;69.57;99826.00;5089387;28;20025;-82
2021/12/27 12:41:49;;;;;;;0.20;0.20;;;;;;;10.54;69.60;99820.56;5084005;28;20410;-83